createdAt,value
2022-08-18T00:01:44.836Z,21.74
2022-08-18T00:04:24.303Z,21.74
2022-08-18T00:07:00.560Z,21.70
2022-08-18T00:09:31.982Z,21.65
2022-08-18T00:12:08.921Z,21.62
2022-08-18T00:14:36.547Z,21.60
2022-08-18T00:17:03.934Z,21.55
2022-08-18T00:19:46.182Z,21.51
2022-08-18T00:22:20.652Z,21.45
2022-08-18T00:24:54.523Z,21.44
2022-08-18T00:27:31.470Z,21.41
2022-08-18T00:30:05.353Z,21.39
2022-08-18T00:32:51.128Z,21.33
2022-08-18T00:35:34.940Z,21.32
2022-08-18T00:38:08.492Z,21.31
2022-08-18T00:40:54.454Z,21.31
2022-08-18T00:43:43.310Z,21.31
2022-08-18T00:46:29.104Z,21.31
2022-08-18T00:48:58.043Z,21.30
2022-08-18T00:51:48.328Z,21.29
2022-08-18T00:54:27.482Z,21.32
2022-08-18T00:57:06.330Z,21.29
2022-08-18T00:59:45.582Z,21.31
2022-08-18T01:02:46.780Z,21.27
2022-08-18T01:05:30.597Z,21.24
2022-08-18T01:07:58.072Z,21.25
2022-08-18T01:10:25.376Z,21.25
2022-08-18T01:12:59.425Z,21.26
2022-08-18T01:15:30.496Z,21.24
2022-08-18T01:18:28.261Z,21.25
2022-08-18T01:21:35.104Z,21.27
2022-08-18T01:24:10.382Z,21.30
2022-08-18T01:26:46.582Z,21.31
2022-08-18T01:29:18.671Z,21.27
2022-08-18T01:31:56.504Z,21.23
2022-08-18T01:34:28.563Z,21.20
2022-08-18T01:36:57.452Z,21.15
2022-08-18T01:41:23.093Z,21.08
2022-08-18T01:42:18.086Z,21.03
2022-08-18T01:44:51.239Z,20.99
2022-08-18T01:47:21.028Z,20.91
2022-08-18T01:49:48.338Z,20.86
2022-08-18T01:52:21.250Z,20.83
2022-08-18T01:54:51.619Z,20.83
2022-08-18T01:57:22.238Z,20.79
2022-08-18T01:59:49.603Z,20.71
2022-08-18T02:02:28.222Z,20.69
2022-08-18T02:05:04.905Z,20.68
2022-08-18T02:07:36.195Z,20.67
2022-08-18T02:10:11.743Z,20.65
2022-08-18T02:12:41.847Z,20.62
2022-08-18T02:15:10.698Z,20.57
2022-08-18T02:17:42.917Z,20.56
2022-08-18T02:20:18.004Z,20.52
2022-08-18T02:22:47.991Z,20.49
2022-08-18T02:25:18.206Z,20.47
2022-08-18T02:27:46.813Z,20.46
2022-08-18T02:30:19.465Z,20.40
2022-08-18T02:32:46.823Z,20.38
2022-08-18T02:35:14.479Z,20.39
2022-08-18T02:37:43.472Z,20.42
2022-08-18T02:40:14.787Z,20.39
2022-08-18T02:42:47.335Z,20.36
2022-08-18T02:45:15.102Z,20.32
2022-08-18T02:47:44.317Z,20.28
2022-08-18T02:50:14.187Z,20.27
2022-08-18T02:52:41.529Z,20.26
2022-08-18T02:55:10.667Z,20.23
2022-08-18T02:57:46.001Z,20.19
2022-08-18T03:00:19.193Z,20.08
2022-08-18T03:02:51.628Z,20.04
2022-08-18T03:05:20.388Z,20.02
2022-08-18T03:07:47.611Z,19.98
2022-08-18T03:10:33.224Z,19.94
2022-08-18T03:13:01.658Z,19.89
2022-08-18T03:15:28.833Z,19.84
2022-08-18T03:17:56.324Z,19.80
2022-08-18T03:20:30.144Z,19.76
2022-08-18T03:23:05.838Z,19.70
2022-08-18T03:25:44.344Z,19.63
2022-08-18T03:28:11.588Z,19.58
2022-08-18T03:30:38.833Z,19.57
2022-08-18T03:33:05.942Z,19.56
2022-08-18T03:35:37.117Z,19.47
2022-08-18T03:38:05.623Z,19.43
2022-08-18T03:40:33.466Z,19.40
2022-08-18T03:43:49.525Z,19.40
2022-08-18T03:45:54.895Z,19.32
2022-08-18T03:48:22.376Z,19.27
2022-08-18T03:50:49.631Z,19.28
2022-08-18T03:53:16.643Z,19.25
2022-08-18T03:55:43.789Z,19.25
2022-08-18T03:58:14.963Z,19.25
2022-08-18T04:00:42.448Z,19.26
2022-08-18T04:03:09.802Z,19.24
2022-08-18T04:05:41.233Z,19.17
2022-08-18T04:08:08.469Z,19.08
2022-08-18T04:10:35.753Z,19.02
2022-08-18T04:13:05.649Z,19.04
2022-08-18T04:15:33.825Z,19.09
2022-08-18T04:18:08.670Z,19.11
2022-08-18T04:20:36.289Z,19.06
2022-08-18T04:23:03.409Z,19.08
2022-08-18T04:25:33.468Z,19.10
2022-08-18T04:28:02.473Z,19.11
2022-08-18T04:30:29.501Z,19.14
2022-08-18T04:32:56.700Z,19.17
2022-08-18T04:35:24.370Z,19.21
2022-08-18T04:37:51.749Z,19.25
2022-08-18T04:40:22.932Z,19.35
2022-08-18T04:42:52.150Z,19.44
2022-08-18T04:45:19.196Z,19.46
2022-08-18T04:47:46.270Z,19.47
2022-08-18T04:50:13.356Z,19.47
2022-08-18T04:52:59.028Z,19.45
2022-08-18T04:55:26.085Z,19.48
2022-08-18T04:57:53.301Z,19.54
2022-08-18T05:00:20.864Z,19.68
2022-08-18T05:02:49.444Z,19.76
2022-08-18T05:05:16.585Z,19.84
2022-08-18T05:07:47.668Z,19.91
2022-08-18T05:10:17.958Z,19.98
2022-08-18T05:12:48.840Z,20.05
2022-08-18T05:15:17.762Z,20.12
2022-08-18T05:17:45.483Z,20.17
2022-08-18T05:20:17.510Z,20.21
2022-08-18T05:22:45.641Z,20.25
2022-08-18T05:25:13.557Z,20.27
2022-08-18T05:27:43.947Z,20.29
2022-08-18T05:30:12.110Z,20.36
2022-08-18T05:32:50.080Z,20.41
2022-08-18T05:35:43.790Z,20.48
2022-08-18T05:39:04.727Z,20.57
2022-08-18T05:44:15.537Z,20.76
2022-08-18T05:46:56.209Z,20.85
2022-08-18T05:49:27.634Z,20.91
2022-08-18T05:52:07.786Z,20.99
2022-08-18T05:55:10.051Z,21.06
2022-08-18T05:58:01.998Z,21.17
2022-08-18T06:00:33.030Z,21.25
2022-08-18T06:03:23.324Z,21.42
2022-08-18T06:06:07.660Z,21.63
2022-08-18T06:08:59.188Z,21.80
2022-08-18T06:11:26.298Z,21.96
2022-08-18T06:13:54.941Z,21.98
2022-08-18T06:16:57.554Z,22.19
2022-08-18T06:20:28.443Z,22.59
2022-08-18T06:23:12.661Z,22.78
2022-08-18T06:26:25.809Z,22.55
2022-08-18T06:29:38.009Z,22.60
2022-08-18T06:32:37.591Z,22.77
2022-08-18T06:35:45.861Z,23.15
2022-08-18T06:38:38.972Z,23.15
2022-08-18T06:41:41.593Z,23.11
2022-08-18T06:44:42.877Z,23.08
2022-08-18T06:47:53.141Z,23.55
2022-08-18T06:50:36.496Z,23.96
2022-08-18T06:53:27.482Z,24.08
2022-08-18T06:55:56.329Z,24.03
2022-08-18T06:58:31.449Z,24.21
2022-08-18T07:01:06.873Z,24.41
2022-08-18T07:03:36.902Z,24.67
2022-08-18T07:06:22.279Z,24.84
2022-08-18T07:09:24.606Z,24.95
2022-08-18T07:12:15.497Z,24.94
2022-08-18T07:14:50.773Z,24.96
2022-08-18T07:17:52.815Z,25.05
2022-08-18T07:20:25.372Z,25.14
2022-08-18T07:23:08.083Z,25.19
2022-08-18T07:25:46.142Z,25.20
2022-08-18T07:28:45.215Z,25.06
2022-08-18T07:31:48.261Z,24.97
2022-08-18T07:34:37.248Z,24.91
2022-08-18T07:37:31.547Z,24.88
2022-08-18T07:40:19.813Z,24.65
2022-08-18T07:43:39.327Z,24.35
2022-08-18T07:46:50.952Z,24.72
2022-08-18T07:49:26.514Z,24.87
2022-08-18T07:52:44.098Z,25.01
2022-08-18T07:55:36.250Z,25.08
2022-08-18T07:58:39.328Z,25.07
2022-08-18T08:01:34.066Z,25.20
2022-08-18T08:04:43.746Z,25.08
2022-08-18T08:07:38.239Z,25.12
2022-08-18T08:10:26.831Z,25.25
2022-08-18T08:13:51.445Z,25.34
2022-08-18T08:16:36.799Z,25.43
2022-08-18T08:20:08.570Z,25.60
2022-08-18T08:23:17.507Z,25.64
2022-08-18T08:26:19.517Z,25.45
2022-08-18T08:29:48.966Z,25.69
2022-08-18T08:32:34.323Z,25.66
2022-08-18T08:35:48.745Z,25.67
2022-08-18T08:38:42.197Z,25.86
2022-08-18T08:41:28.445Z,26.13
2022-08-18T08:44:33.053Z,26.53
2022-08-18T08:47:34.554Z,26.96
2022-08-18T08:50:27.087Z,26.81
2022-08-18T08:53:12.586Z,26.79
2022-08-18T08:56:00.122Z,27.31
2022-08-18T08:58:59.149Z,27.60
2022-08-18T09:01:58.645Z,27.63
2022-08-18T09:05:07.640Z,27.90
2022-08-18T09:08:15.395Z,27.54
2022-08-18T09:11:20.903Z,27.63
2022-08-18T09:14:41.118Z,27.89
2022-08-18T09:17:56.011Z,28.42
2022-08-18T09:21:16.119Z,28.65
2022-08-18T09:23:53.501Z,28.28
2022-08-18T09:26:50.038Z,28.23
2022-08-18T09:30:00.890Z,28.58
2022-08-18T09:32:29.288Z,28.27
2022-08-18T09:35:26.979Z,28.25
2022-08-18T09:38:35.775Z,28.00
2022-08-18T09:41:34.187Z,28.30
2022-08-18T09:44:18.025Z,28.37
2022-08-18T09:47:01.249Z,28.35
2022-08-18T09:49:28.257Z,28.64
2022-08-18T09:55:18.218Z,29.46
2022-08-18T09:57:48.060Z,29.56
2022-08-18T10:00:33.513Z,29.75
2022-08-18T10:03:13.751Z,29.56
2022-08-18T10:06:14.883Z,29.37
2022-08-18T10:09:36.686Z,29.31
2022-08-18T10:12:42.510Z,29.40
2022-08-18T10:15:33.330Z,29.95
2022-08-18T10:18:37.616Z,29.87
2022-08-18T10:21:28.076Z,30.24
2022-08-18T10:26:57.397Z,30.58
2022-08-18T10:29:30.026Z,30.60
2022-08-18T10:31:57.495Z,30.72
2022-08-18T10:34:52.077Z,30.81
2022-08-18T10:37:50.702Z,31.03
2022-08-18T10:40:26.513Z,30.97
2022-08-18T10:43:45.444Z,30.40
2022-08-18T10:46:25.088Z,30.64
2022-08-18T10:49:13.391Z,30.52
2022-08-18T10:52:05.723Z,30.70
2022-08-18T10:55:14.415Z,30.60
2022-08-18T10:58:43.189Z,30.46
2022-08-18T11:01:40.730Z,30.50
2022-08-18T11:04:36.964Z,30.64
2022-08-18T11:07:22.075Z,30.55
2022-08-18T11:10:12.959Z,30.74
2022-08-18T11:13:37.777Z,30.60
2022-08-18T11:16:41.502Z,30.71
2022-08-18T11:19:17.120Z,31.16
2022-08-18T11:21:52.643Z,31.39
2022-08-18T11:24:35.498Z,31.35
2022-08-18T11:27:32.893Z,31.08
2022-08-18T11:30:05.842Z,31.22
2022-08-18T11:35:51.906Z,31.16
2022-08-18T11:38:21.086Z,31.17
2022-08-18T11:41:13.774Z,31.15
2022-08-18T11:43:47.450Z,31.38
2022-08-18T11:46:28.324Z,31.53
2022-08-18T11:49:15.718Z,31.52
2022-08-18T11:52:19.709Z,31.54
2022-08-18T11:55:14.632Z,31.78
2022-08-18T11:58:00.123Z,31.83
2022-08-18T12:00:48.738Z,31.71
2022-08-18T12:03:42.357Z,31.96
2022-08-18T12:06:20.676Z,32.02
2022-08-18T12:09:36.942Z,32.01
2022-08-18T12:12:30.512Z,31.93
2022-08-18T12:15:22.707Z,31.80
2022-08-18T12:17:53.716Z,31.67
2022-08-18T12:20:23.131Z,31.65
2022-08-18T12:22:52.013Z,31.81
2022-08-18T12:25:25.348Z,32.09
2022-08-18T12:27:54.533Z,32.17
2022-08-18T12:30:21.745Z,32.22
2022-08-18T12:32:50.775Z,32.05
2022-08-18T12:35:29.091Z,32.25
2022-08-18T12:38:00.483Z,32.48
2022-08-18T12:40:33.609Z,32.51
2022-08-18T12:43:00.768Z,32.53
2022-08-18T12:45:31.167Z,32.42
2022-08-18T12:48:04.095Z,32.48
2022-08-18T12:50:39.190Z,32.63
2022-08-18T12:53:17.678Z,32.60
2022-08-18T12:55:56.274Z,32.62
2022-08-18T12:58:23.293Z,32.75
2022-08-18T13:00:51.509Z,33.00
2022-08-18T13:03:19.438Z,33.08
2022-08-18T13:05:47.739Z,32.89
2022-08-18T13:08:30.311Z,32.48
2022-08-18T13:11:14.844Z,32.14
2022-08-18T13:13:53.285Z,32.17
2022-08-18T13:16:38.834Z,32.11
2022-08-18T13:19:10.748Z,32.22
2022-08-18T13:21:41.427Z,32.38
2022-08-18T13:24:12.766Z,32.53
2022-08-18T13:26:46.853Z,32.70
2022-08-18T13:29:18.535Z,32.56
2022-08-18T13:31:55.588Z,32.78
2022-08-18T13:34:30.008Z,32.80
2022-08-18T13:36:57.838Z,32.69
2022-08-18T13:39:33.823Z,32.69
2022-08-18T13:42:26.866Z,32.50
2022-08-18T13:44:53.181Z,32.43
2022-08-18T13:47:22.624Z,32.37
2022-08-18T13:49:58.130Z,32.24
2022-08-18T13:52:34.493Z,32.14
2022-08-18T13:55:08.033Z,32.09
2022-08-18T13:57:38.620Z,31.95
2022-08-18T14:00:18.245Z,31.94
2022-08-18T14:02:53.909Z,31.92
2022-08-18T14:05:22.165Z,31.85
2022-08-18T14:08:05.529Z,31.91
2022-08-18T14:10:33.406Z,32.09
2022-08-18T14:13:20.325Z,32.44
2022-08-18T14:15:55.997Z,32.71
2022-08-18T14:18:29.220Z,32.64
2022-08-18T14:21:23.248Z,33.08
2022-08-18T14:24:10.215Z,33.55
2022-08-18T14:26:51.021Z,34.04
2022-08-18T14:29:46.294Z,34.56
2022-08-18T14:32:07.982Z,34.81
2022-08-18T14:34:36.952Z,34.29
2022-08-18T14:37:04.225Z,33.79
2022-08-18T14:39:31.329Z,33.15
2022-08-18T14:41:58.608Z,33.11
2022-08-18T14:44:31.882Z,33.15
2022-08-18T14:46:59.899Z,32.92
2022-08-18T14:49:29.257Z,32.78
2022-08-18T14:52:02.245Z,32.72
2022-08-18T14:54:32.379Z,32.49
2022-08-18T14:57:02.655Z,32.36
2022-08-18T14:59:37.599Z,32.19
2022-08-18T15:02:13.107Z,31.93
2022-08-18T15:04:52.917Z,31.70
2022-08-18T15:07:26.257Z,31.60
2022-08-18T15:10:15.188Z,31.52
2022-08-18T15:12:42.035Z,31.47
2022-08-18T15:15:17.714Z,31.39
2022-08-18T15:17:51.484Z,31.32
2022-08-18T15:20:29.486Z,31.20
2022-08-18T15:23:23.442Z,31.11
2022-08-18T15:25:56.541Z,31.29
2022-08-18T15:28:27.190Z,31.18
2022-08-18T15:33:42.123Z,30.96
2022-08-18T15:36:10.356Z,30.88
2022-08-18T15:38:43.583Z,30.75
2022-08-18T15:41:28.432Z,30.63
2022-08-18T15:43:58.592Z,30.74
2022-08-18T15:46:25.608Z,30.85
2022-08-18T15:48:54.744Z,30.83
2022-08-18T15:51:21.850Z,30.81
2022-08-18T15:53:49.062Z,30.66
2022-08-18T15:56:26.021Z,30.58
2022-08-18T15:58:54.021Z,30.57
2022-08-18T16:01:30.595Z,30.60
2022-08-18T16:04:01.424Z,30.59
2022-08-18T16:06:32.384Z,30.54
2022-08-18T16:09:01.907Z,30.53
2022-08-18T16:11:30.558Z,30.47
2022-08-18T16:13:59.295Z,30.33
2022-08-18T16:16:29.124Z,30.14
2022-08-18T16:19:06.744Z,30.01
2022-08-18T16:21:37.950Z,29.87
2022-08-18T16:24:05.927Z,29.75
2022-08-18T16:26:33.111Z,29.52
2022-08-18T16:29:01.996Z,28.66
2022-08-18T16:31:29.779Z,28.11
2022-08-18T16:33:59.069Z,27.14
2022-08-18T16:36:26.515Z,26.46
2022-08-18T16:38:56.178Z,26.18
2022-08-18T16:41:26.825Z,26.13
2022-08-18T16:43:54.579Z,25.82
2022-08-18T16:46:27.440Z,25.71
2022-08-18T16:48:58.666Z,25.54
2022-08-18T16:51:29.371Z,25.59
2022-08-18T16:53:56.860Z,25.57
2022-08-18T16:56:31.180Z,25.51
2022-08-18T16:59:16.929Z,25.11
2022-08-18T17:02:02.796Z,24.82
2022-08-18T17:04:35.828Z,24.51
2022-08-18T17:07:06.675Z,24.45
2022-08-18T17:09:36.014Z,24.46
2022-08-18T17:12:05.199Z,24.41
2022-08-18T17:14:33.619Z,24.32
2022-08-18T17:17:01.437Z,24.29
2022-08-18T17:19:35.268Z,24.19
2022-08-18T17:22:06.385Z,24.11
2022-08-18T17:24:33.603Z,24.16
2022-08-18T17:27:26.076Z,24.12
2022-08-18T17:30:11.557Z,23.97
2022-08-18T17:33:08.566Z,23.86
2022-08-18T17:35:44.478Z,23.84
2022-08-18T17:38:34.314Z,23.80
2022-08-18T17:41:05.186Z,23.64
2022-08-18T17:46:27.981Z,23.35
2022-08-18T17:50:27.287Z,23.28
2022-08-18T17:53:00.517Z,22.88
2022-08-18T17:55:53.585Z,22.70
2022-08-18T17:58:46.637Z,22.56
2022-08-18T18:01:15.439Z,22.52
2022-08-18T18:03:44.868Z,22.49
2022-08-18T18:06:35.218Z,22.34
2022-08-18T18:09:28.516Z,22.39
2022-08-18T18:11:55.918Z,22.41
2022-08-18T18:14:39.598Z,22.48
2022-08-18T18:17:25.119Z,22.52
2022-08-18T18:20:15.635Z,22.43
2022-08-18T18:22:45.802Z,22.34
2022-08-18T18:25:34.624Z,22.21
2022-08-18T18:28:02.562Z,22.18
2022-08-18T18:30:29.987Z,22.16
2022-08-18T18:33:13.536Z,22.22
2022-08-18T18:35:59.581Z,22.25
2022-08-18T18:38:49.047Z,22.25
2022-08-18T18:41:28.375Z,22.19
2022-08-18T18:44:10.421Z,22.13
2022-08-18T18:47:07.437Z,22.13
2022-08-18T18:50:27.659Z,22.03
2022-08-18T18:54:08.428Z,22.11
2022-08-18T18:56:49.518Z,22.09
2022-08-18T19:00:18.173Z,22.16
2022-08-18T19:03:23.221Z,22.18
2022-08-18T19:06:13.197Z,22.22
2022-08-18T19:09:20.811Z,22.25
2022-08-18T19:12:23.371Z,22.23
2022-08-18T19:15:15.277Z,22.17
2022-08-18T19:18:33.835Z,22.14
2022-08-18T19:22:03.699Z,22.15
2022-08-18T19:24:25.549Z,22.08
2022-08-18T19:27:03.030Z,22.05
2022-08-18T19:29:43.510Z,22.04
2022-08-18T19:32:36.808Z,22.07
2022-08-18T19:35:13.647Z,22.10
2022-08-18T19:38:04.269Z,22.09
2022-08-18T19:40:51.866Z,22.11
2022-08-18T19:43:36.023Z,22.10
2022-08-18T19:46:20.957Z,22.09
2022-08-18T19:49:42.719Z,22.02
2022-08-18T19:53:12.466Z,21.89
2022-08-18T19:56:10.353Z,21.82
2022-08-18T19:59:40.400Z,21.83
2022-08-18T20:03:14.712Z,21.92
2022-08-18T20:06:33.643Z,22.01
2022-08-18T20:09:42.776Z,21.92
2022-08-18T20:13:20.089Z,21.90
2022-08-18T20:16:02.074Z,21.75
2022-08-18T20:18:50.241Z,21.49
2022-08-18T20:21:17.369Z,21.26
2022-08-18T20:23:56.806Z,21.06
2022-08-18T20:26:38.734Z,21.04
2022-08-18T20:29:39.723Z,20.89
2022-08-18T20:32:32.040Z,20.85
2022-08-18T20:35:32.562Z,20.85
2022-08-18T20:38:38.794Z,20.79
2022-08-18T20:41:28.739Z,20.59
2022-08-18T20:44:29.321Z,20.49
2022-08-18T20:47:27.334Z,20.48
2022-08-18T20:50:31.498Z,20.40
2022-08-18T20:54:02.897Z,20.39
2022-08-18T20:56:59.168Z,20.31
2022-08-18T21:00:13.352Z,20.21
2022-08-18T21:02:49.758Z,20.16
2022-08-18T21:05:39.197Z,20.16
2022-08-18T21:08:16.539Z,20.12
2022-08-18T21:10:59.526Z,20.17
2022-08-18T21:13:41.574Z,20.21
2022-08-18T21:16:38.149Z,20.22
2022-08-18T21:19:25.991Z,20.21
2022-08-18T21:22:01.440Z,20.22
2022-08-18T21:24:45.196Z,20.23
2022-08-18T21:27:32.514Z,20.23
2022-08-18T21:30:15.590Z,20.25
2022-08-18T21:32:47.144Z,20.20
2022-08-18T21:35:38.249Z,20.14
2022-08-18T21:38:13.219Z,20.11
2022-08-18T21:40:50.844Z,20.17
2022-08-18T21:43:49.532Z,20.19
2022-08-18T21:46:31.134Z,20.24
2022-08-18T21:49:04.112Z,20.19
2022-08-18T21:51:48.743Z,20.20
2022-08-18T21:54:30.248Z,20.22
2022-08-18T21:57:24.784Z,20.31
2022-08-18T22:00:29.755Z,20.31
2022-08-18T22:03:24.888Z,20.31
2022-08-18T22:06:21.833Z,20.32
2022-08-18T22:09:42.446Z,20.32
2022-08-18T22:12:53.561Z,20.25
2022-08-18T22:15:48.730Z,20.28
2022-08-18T22:18:18.690Z,20.40
2022-08-18T22:20:59.786Z,20.47
2022-08-18T22:24:05.959Z,20.52
2022-08-18T22:26:38.464Z,20.44
2022-08-18T22:29:33.325Z,20.37
2022-08-18T22:32:04.094Z,20.34
2022-08-18T22:34:34.624Z,20.22
2022-08-18T22:37:19.940Z,20.22
2022-08-18T22:40:12.495Z,20.27
2022-08-18T22:42:40.725Z,20.32
2022-08-18T22:45:13.681Z,20.31
2022-08-18T22:47:43.656Z,20.24
2022-08-18T22:50:14.367Z,20.17
2022-08-18T22:52:49.760Z,20.02
2022-08-18T22:55:21.830Z,19.93
2022-08-18T22:57:55.654Z,19.91
2022-08-18T23:00:25.355Z,19.98
2022-08-18T23:02:55.146Z,20.03
2022-08-18T23:05:23.372Z,20.09
2022-08-18T23:07:50.983Z,20.10
2022-08-18T23:10:18.732Z,20.12
2022-08-18T23:12:49.324Z,20.14
2022-08-18T23:15:19.199Z,20.15
2022-08-18T23:17:46.449Z,20.12
2022-08-18T23:20:18.352Z,20.04
2022-08-18T23:22:48.273Z,20.02
2022-08-18T23:25:15.853Z,20.11
2022-08-18T23:27:43.351Z,20.13
2022-08-18T23:30:11.262Z,20.14
2022-08-18T23:32:38.334Z,20.04
2022-08-18T23:35:06.180Z,19.96
2022-08-18T23:37:33.340Z,19.93
2022-08-18T23:40:00.639Z,19.93
2022-08-18T23:42:28.125Z,19.97
2022-08-18T23:45:04.400Z,19.94
2022-08-18T23:47:31.888Z,19.96
2022-08-18T23:49:59.585Z,19.99
2022-08-18T23:52:26.644Z,19.95
2022-08-18T23:54:54.239Z,19.87
2022-08-18T23:57:21.368Z,19.90
2022-08-18T23:59:48.715Z,19.84
